Latest Weather Observations for Beaudesert AWS

IDQ60801

Issued at 6:35 pm EST Saturday 26 July 2014 (issued every 30 minutes, with the page automatically refreshed every 10 minutes)

About weather observations | Map of weather stations | Latest weather observations for QLD | Other Formats
Station Details ID: 040983 Name: BEAUDESERT DRUMLEY STREET Lat: -27.97 Lon: 152.99 Height: 47.81 m
Data from the previous 72 hours. | See also: Recent months at Beaudesert AWS
Date/Time
EST
Temp
°C
App
Temp
°C
Dew
Point
Rel
Hum
%
Delta-T
°C
Wind Press
QNH
hPa
Press
MSL
hPa
Rain
since 9 am
mm
Dir
 
Spd
km/h
Gust
km/h
Spd
kts
Gust
kts
26/06:30pm 15.4 16.3 13.9 91 0.8 NW 2 4 1 2 1024.5 - 8.6
26/06:00pm 15.5 16.7 13.9 90 0.9 E 0 0 0 0 1024.1 1024.1 8.6
26/05:30pm 15.5 15.0 13.9 90 0.9 SSW 9 15 5 8 1023.5 - 8.6
26/05:00pm 16.0 16.0 14.2 89 1.0 NE 7 9 4 5 1023.0 1023.0 8.6
26/04:30pm 16.0 16.2 14.2 89 1.0 NNE 6 9 3 5 1023.6 - 8.6
26/04:00pm 16.1 14.6 13.0 82 1.7 WSW 13 19 7 10 1024.1 1024.1 5.2
26/03:30pm 21.1 20.7 12.5 58 4.9 NW 6 11 3 6 1023.4 - 0.0
26/03:00pm 21.5 20.4 12.1 55 5.3 NNW 9 13 5 7 1023.1 1023.1 0.0
26/02:30pm 21.7 21.1 12.3 55 5.3 NNW 7 13 4 7 1023.1 - 0.0
26/02:00pm 21.8 21.6 12.9 57 5.1 NNW 6 9 3 5 1023.3 1023.3 0.0
26/01:30pm 21.4 20.9 12.8 58 4.9 N 7 13 4 7 1023.5 - 0.0
26/01:00pm 21.8 22.0 13.2 58 4.9 NNW 4 9 2 5 1023.9 1023.9 0.0
26/12:30pm 21.0 21.2 12.9 60 4.6 W 4 7 2 4 1024.5 - 0.0
26/12:00pm 20.2 20.7 12.9 63 4.1 NW 2 6 1 3 1025.1 1025.1 0.0
26/11:30am 19.9 20.2 13.4 66 3.7 SW 4 9 2 5 1026.0 - 0.0
26/11:00am 19.2 20.1 14.0 72 3.0 SW 2 6 1 3 1026.5 1026.5 0.0
26/10:30am 17.4 18.1 13.5 78 2.2 WNW 2 4 1 2 1027.1 - 0.0
26/10:00am 16.3 17.0 13.4 83 1.6 SW 2 4 1 2 1027.2 1027.2 0.0
26/09:30am 15.4 16.4 13.1 86 1.3 CALM 0 0 0 0 1027.7 - 0.0
26/09:00am 14.3 15.1 12.7 90 0.9 CALM 0 0 0 0 1027.9 1027.9 0.0
26/08:30am 13.0 13.6 11.9 93 0.6 CALM 0 0 0 0 1027.6 - 0.0
26/08:00am 11.1 11.2 10.0 93 0.6 CALM 0 0 0 0 1027.3 1027.3 0.0
26/07:30am 10.2 9.3 9.1 93 0.5 S 4 6 2 3 1026.9 - 0.0
26/07:00am 10.2 9.6 9.1 93 0.5 S 2 2 1 1 1027.1 1027.1 0.0
26/06:30am 10.1 9.9 9.0 93 0.5 CALM 0 0 0 0 1027.1 - 0.0
26/06:00am 10.6 10.6 9.7 94 0.5 SE 0 0 0 0 1026.6 1026.6 0.0
26/05:30am 10.3 10.2 9.4 94 0.4 CALM 0 0 0 0 1026.4 - 0.0
26/05:00am 10.4 10.3 9.5 94 0.4 CALM 0 0 0 0 1026.3 1026.3 0.0
26/04:30am 10.1 9.9 9.2 94 0.4 CALM 0 0 0 0 1026.3 - 0.0
26/04:00am 9.1 8.7 8.2 94 0.4 CALM 0 0 0 0 1025.6 1025.6 0.0
26/03:30am 8.2 7.5 7.1 93 0.5 CALM 0 0 0 0 1025.9 - 0.0
26/03:00am 8.0 7.2 6.6 91 0.6 CALM 0 0 0 0 1026.0 1026.0 0.0
26/02:30am 9.1 8.2 7.9 92 0.6 E 2 4 1 2 1026.1 - 0.0
26/02:00am 10.1 9.9 9.0 93 0.5 CALM 0 0 0 0 1026.3 1026.3 0.0
26/01:30am 10.8 10.8 9.7 93 0.6 CALM 0 0 0 0 1026.5 - 0.0
26/01:00am 11.3 11.4 10.2 93 0.6 CALM 0 0 0 0 1026.5 1026.5 0.0
26/12:30am 11.2 11.3 10.1 93 0.6 CALM 0 4 0 2 1026.6 - 0.0
26/12:00am 12.0 12.0 11.1 94 0.5 ESE 2 4 1 2 1026.8 1026.8 0.0
 
Date/Time
EST
Temp
°C
App
Temp
°C
Dew
Point
Rel
Hum
%
Delta-T
°C
Wind Press
QNH
hPa
Press
MSL
hPa
Rain
since 9 am
mm
Dir
 
Spd
km/h
Gust
km/h
Spd
kts
Gust
kts
25/11:30pm 10.8 10.7 9.6 92 0.6 CALM 0 0 0 0 1027.0 - 0.0
25/11:00pm 11.2 11.3 10.0 92 0.6 CALM 0 0 0 0 1027.1 1027.1 0.0
25/10:30pm 11.1 11.0 9.5 90 0.8 CALM 0 0 0 0 1027.2 - 0.0
25/10:00pm 11.3 11.2 9.6 89 0.9 CALM 0 0 0 0 1027.1 1027.1 0.0
25/09:30pm 11.6 11.5 9.5 87 1.1 CALM 0 0 0 0 1027.3 - 0.0
25/09:00pm 12.4 12.6 10.6 89 0.9 CALM 0 0 0 0 1027.1 1027.1 0.0
25/08:30pm 12.5 12.4 9.5 82 1.5 CALM 0 0 0 0 1027.0 - 0.0
25/08:00pm 13.9 14.1 10.7 81 1.7 CALM 0 0 0 0 1026.6 1026.6 0.0
25/07:30pm 14.4 14.2 10.4 77 2.1 SSW 2 4 1 2 1026.3 - 0.0
25/07:00pm 16.0 16.0 11.2 73 2.6 E 2 4 1 2 1025.9 1025.9 0.0
25/06:30pm 17.7 17.5 11.7 68 3.3 NNE 4 6 2 3 1025.4 - 0.0
25/06:00pm 18.8 18.1 12.1 65 3.7 NNE 7 11 4 6 1025.0 1025.0 0.0
25/05:30pm 19.5 18.6 11.3 59 4.5 N 7 11 4 6 1024.6 - 0.0
25/05:00pm 20.9 19.7 10.4 51 5.7 NNE 7 13 4 7 1024.0 1024.0 0.0
25/04:30pm 22.3 20.6 9.8 45 6.8 N 9 17 5 9 1023.6 - 0.0
25/04:00pm 23.0 21.5 9.0 41 7.5 NNE 7 13 4 7 1023.4 1023.4 0.0
25/03:30pm 23.6 21.4 9.2 40 7.8 N 11 17 6 9 1023.4 - 0.0
25/03:00pm 23.5 22.0 9.1 40 7.7 NNW 7 13 4 7 1023.4 1023.4 0.0
25/02:30pm 23.3 21.6 8.2 38 8.0 N 7 15 4 8 1023.5 - 0.0
25/02:00pm 23.4 21.7 7.5 36 8.3 N 6 17 3 9 1023.7 1023.7 0.0
25/01:30pm 23.7 22.5 10.4 43 7.3 NNW 7 17 4 9 1024.0 - 0.0
25/01:00pm 23.3 21.5 9.3 41 7.5 N 9 20 5 11 1024.3 1024.3 0.0
25/12:30pm 22.4 21.4 10.9 48 6.4 NNW 7 13 4 7 1024.8 - 0.0
25/12:00pm 21.6 20.6 12.2 55 5.3 NW 9 19 5 10 1025.3 1025.3 0.0
25/11:30am 21.1 20.5 12.3 57 5.0 NW 7 13 4 7 1025.9 - 0.0
25/11:00am 20.6 20.3 12.6 60 4.5 W 6 11 3 6 1026.3 1026.3 0.0
25/10:30am 19.6 19.7 12.6 64 3.9 W 4 9 2 5 1026.5 - 0.0
25/10:00am 18.3 19.0 12.3 68 3.3 CALM 0 2 0 1 1026.9 1026.9 0.0
25/09:30am 16.1 16.8 12.1 77 2.2 CALM 0 0 0 0 1027.2 - 0.0
25/09:00am 12.9 13.1 10.4 85 1.3 CALM 0 0 0 0 1027.3 1027.3 0.0
25/08:30am 10.8 10.3 9.4 91 0.7 SSE 2 4 1 2 1027.3 - 0.0
25/08:00am 8.2 7.1 7.1 93 0.5 SSW 2 4 1 2 1027.1 1027.1 0.0
25/07:30am 6.2 5.1 5.2 93 0.4 CALM 0 0 0 0 1026.9 - 0.0
25/07:00am 6.2 5.1 5.2 93 0.4 CALM 0 0 0 0 1026.4 1026.4 0.0
25/06:30am 5.9 4.8 5.0 94 0.4 CALM 0 2 0 1 1026.2 - 0.0
25/06:00am 7.3 5.7 6.4 94 0.4 SSE 4 4 2 2 1025.8 1025.8 0.0
25/05:30am 6.2 4.4 5.2 93 0.4 E 4 4 2 2 1025.4 - 0.0
25/05:00am 5.6 4.3 4.1 90 0.6 CALM 0 2 0 1 1025.2 1025.2 0.0
25/04:30am 7.4 6.2 6.3 93 0.5 SSE 2 6 1 3 1025.1 - 0.0
25/04:00am 7.5 6.7 6.3 92 0.5 CALM 0 0 0 0 1025.1 1025.1 0.0
25/03:30am 8.0 6.9 6.8 92 0.6 ESE 2 4 1 2 1025.1 - 0.0
25/03:00am 8.3 7.2 7.1 92 0.6 SE 2 4 1 2 1025.1 1025.1 0.0
25/02:30am 8.5 7.5 7.3 92 0.6 SSE 2 4 1 2 1025.0 - 0.0
25/02:00am 8.9 7.6 7.5 91 0.7 SSE 4 6 2 3 1025.0 1025.0 0.0
25/01:30am 9.5 8.7 8.1 91 0.7 SE 2 2 1 1 1024.9 - 0.0
25/01:00am 9.9 8.8 8.5 91 0.7 SE 4 7 2 4 1024.9 1024.9 0.0
25/12:30am 10.0 9.3 8.4 90 0.8 SE 2 4 1 2 1024.8 - 0.0
25/12:00am 10.7 10.2 9.3 91 0.7 SE 2 4 1 2 1024.9 1024.9 0.0
 
Date/Time
EST
Temp
°C
App
Temp
°C
Dew
Point
Rel
Hum
%
Delta-T
°C
Wind Press
QNH
hPa
Press
MSL
hPa
Rain
since 9 am
mm
Dir
 
Spd
km/h
Gust
km/h
Spd
kts
Gust
kts
24/11:30pm 10.4 9.6 9.5 94 0.5 ESE 4 4 2 2 1025.0 - 0.0
24/11:00pm 9.2 8.4 8.1 93 0.5 SE 2 4 1 2 1025.0 1025.0 0.0
24/10:30pm 8.0 7.2 6.5 90 0.7 CALM 0 0 0 0 1025.0 - 0.0
24/10:00pm 8.5 7.8 7.0 90 0.7 CALM 0 0 0 0 1025.0 1025.0 0.0
24/09:30pm 10.0 9.8 8.9 93 0.5 CALM 0 0 0 0 1024.9 - 0.0
24/09:00pm 9.4 8.9 7.7 89 0.8 CALM 0 0 0 0 1024.7 1024.7 0.0
24/08:30pm 10.8 10.6 8.9 88 0.9 CALM 0 0 0 0 1024.4 - 0.0
24/08:00pm 10.9 10.7 9.0 88 0.9 CALM 0 0 0 0 1024.1 1024.1 0.0
24/07:30pm 11.4 11.0 8.4 82 1.5 CALM 0 0 0 0 1023.8 - 0.0
24/07:00pm 12.9 12.6 8.8 76 2.0 CALM 0 0 0 0 1023.5 1023.5 0.0
24/06:30pm 14.7 14.9 10.5 76 2.2 CALM 0 0 0 0 1023.1 - 0.0
24/06:00pm 15.4 15.1 10.0 70 2.8 SSE 2 4 1 2 1022.4 1022.5 0.0
24/05:30pm 17.4 16.5 10.5 64 3.7 NE 6 9 3 5 1022.0 - 0.0
24/05:00pm 18.6 17.1 10.7 60 4.3 NE 9 15 5 8 1021.8 1021.9 0.0
24/04:30pm 19.6 17.8 10.9 57 4.7 NE 11 19 6 10 1021.4 - 0.0
24/04:00pm 20.6 19.1 10.7 53 5.4 NE 9 17 5 9 1021.2 1021.2 0.0
24/03:30pm 21.6 19.6 10.1 48 6.2 ENE 11 20 6 11 1021.0 - 0.0
24/03:00pm 20.3 17.9 10.1 52 5.5 E 13 19 7 10 1020.9 1020.9 0.0
24/02:30pm 21.1 19.4 10.0 49 6.0 E 9 13 5 7 1020.9 - 0.0
24/02:00pm 20.7 20.0 8.7 46 6.3 NNE 2 6 1 3 1021.0 1021.0 0.0
24/01:30pm 21.3 19.7 8.2 43 6.9 N 6 11 3 6 1021.2 - 0.0
24/01:00pm 22.1 20.7 8.9 43 7.0 N 6 13 3 7 1021.3 1021.3 0.0
24/12:30pm 21.9 20.6 9.8 46 6.6 NNW 7 15 4 8 1021.6 - 0.0
24/12:00pm 21.2 20.0 9.4 47 6.3 N 6 15 3 8 1022.2 1022.3 0.0
24/11:30am 20.6 19.5 9.8 50 5.8 ENE 6 13 3 7 1023.0 - 0.0
24/11:00am 19.7 19.0 9.9 53 5.2 N 4 11 2 6 1023.4 1023.4 0.0
24/10:30am 19.7 19.1 10.4 55 5.0 ENE 4 7 2 4 1023.6 - 0.0
24/10:00am 18.4 17.8 10.5 60 4.2 WSW 4 9 2 5 1023.8 1023.8 0.0
24/09:30am 16.1 15.7 9.8 66 3.3 SSW 2 4 1 2 1023.7 - 0.0
24/09:00am 14.5 14.5 9.7 73 2.5 CALM 0 0 0 0 1023.4 1023.4 0.0
24/08:30am 12.6 12.1 9.2 80 1.7 SE 2 4 1 2 1023.4 - 0.0
24/08:00am 10.5 10.1 8.1 85 1.2 CALM 0 0 0 0 1023.3 1023.3 0.0
24/07:30am 9.6 9.1 7.9 89 0.8 CALM 0 0 0 0 1023.4 - 0.0
24/07:00am 9.2 8.6 7.6 90 0.8 CALM 0 0 0 0 1023.3 1023.3 0.0
24/06:30am 8.7 7.7 7.2 90 0.7 ENE 2 4 1 2 1022.7 - 0.0
24/06:00am 8.9 8.3 7.5 91 0.7 CALM 0 2 0 1 1022.4 1022.5 0.0
24/05:30am 8.2 7.1 6.8 91 0.6 ESE 2 4 1 2 1022.1 - 0.0
24/05:00am 8.2 7.4 6.7 90 0.7 CALM 0 0 0 0 1022.0 1022.1 0.0
24/04:30am 8.5 7.8 6.8 89 0.8 CALM 0 2 0 1 1021.8 - 0.0
24/04:00am 8.9 8.2 6.9 87 0.9 CALM 0 0 0 0 1021.8 1021.9 0.0
24/03:30am 9.8 8.9 7.7 87 1.0 N 2 4 1 2 1021.6 - 0.0
24/03:00am 9.6 8.7 7.7 88 0.9 E 2 2 1 1 1022.1 1022.2 0.0
24/02:30am 9.0 8.4 7.3 89 0.8 CALM 0 0 0 0 1021.9 - 0.0
24/02:00am 8.6 7.9 7.1 90 0.7 CALM 0 2 0 1 1021.8 1021.9 0.0
24/01:30am 9.2 8.6 7.6 90 0.8 CALM 0 0 0 0 1022.1 - 0.0
24/01:00am 9.2 8.3 7.8 91 0.7 E 2 4 1 2 1022.4 1022.5 0.0
24/12:30am 7.8 6.9 6.1 89 0.8 CALM 0 2 0 1 1022.6 - 0.0
24/12:00am 9.2 8.0 8.0 92 0.6 SSE 4 6 2 3 1022.1 1022.2 0.0
 
Date/Time
EST
Temp
°C
App
Temp
°C
Dew
Point
Rel
Hum
%
Delta-T
°C
Wind Press
QNH
hPa
Press
MSL
hPa
Rain
since 9 am
mm
Dir
 
Spd
km/h
Gust
km/h
Spd
kts
Gust
kts
23/11:30pm 7.1 6.1 5.7 91 0.6 CALM 0 0 0 0 1022.6 - 0.0
23/11:00pm 8.2 7.5 7.0 92 0.6 CALM 0 2 0 1 1022.7 1022.8 0.0
23/10:30pm 7.2 6.2 5.5 89 0.8 CALM 0 0 0 0 1022.9 - 0.0
23/10:00pm 8.3 7.6 6.9 91 0.6 CALM 0 0 0 0 1022.7 1022.8 0.0
23/09:30pm 7.4 6.2 4.5 82 1.3 CALM 0 0 0 0 1022.6 - 0.0
23/09:00pm 9.1 8.3 6.7 85 1.1 CALM 0 0 0 0 1022.3 1022.4 0.0
23/08:30pm 9.7 9.1 7.3 85 1.1 CALM 0 0 0 0 1022.2 - 0.0
23/08:00pm 10.5 9.9 7.6 82 1.4 CALM 0 0 0 0 1022.0 1022.1 0.0
23/07:30pm 11.3 10.7 7.2 76 2.0 CALM 0 2 0 1 1021.8 - 0.0
23/07:00pm 12.7 10.9 7.0 68 2.7 ESE 6 13 3 7 1021.5 1021.6 0.0

Other Formats:

Comma delimited format used in spreadsheet applications
http://www.bom.gov.au/fwo/IDQ60801/IDQ60801.95575.axf

JavaScript Object Notation format (JSON) in row-major order
http://www.bom.gov.au/fwo/IDQ60801/IDQ60801.95575.json